Philadelphia, Pennsylvania
Traffic Map
Current Weather Conditions
Philadelphia, Pennsylvania
Broken Clouds
Broken Clouds
59°
Feels Like: 59°
Wind Chill: 59° Ceiling: 3800
Heat Index: 59° Visibility: 10mi
Dew Point: 43° Wind: 22mph
Humidity: 55% Direction: 340° (NNW)
Pressure: 29.89in Gusts: 29mph
Raw Report DataKPHL 241354Z 34019G25KT 10SM BKN038 BKN080 15/06 A2989 RMK AO2 SLP120 T01500061
Traffic Incident Summary
Active as of:
Severity:
Category:
InformationThere was an issue retrieving the traffic information for this location. Please try a different location or try again shortly.
Advertisements
Track Severe Weather on mobile